sensor_id;sensor_type;location;lat;lon;timestamp;temperature;humidity
11043;DHT22;5574;48.786;10.120;2022-12-18T00:02:00;-5.20;99.90
11043;DHT22;5574;48.786;10.120;2022-12-18T00:04:27;-5.10;99.90
11043;DHT22;5574;48.786;10.120;2022-12-18T00:06:56;-5.00;99.90
11043;DHT22;5574;48.786;10.120;2022-12-18T00:09:22;-5.00;99.90
11043;DHT22;5574;48.786;10.120;2022-12-18T00:11:49;-5.00;99.90
11043;DHT22;5574;48.786;10.120;2022-12-18T00:14:16;-5.00;99.90
11043;DHT22;5574;48.786;10.120;2022-12-18T00:16:44;-5.00;99.90
11043;DHT22;5574;48.786;10.120;2022-12-18T00:19:13;-5.00;99.90
11043;DHT22;5574;48.786;10.120;2022-12-18T00:21:41;-4.90;99.90
11043;DHT22;5574;48.786;10.120;2022-12-18T00:24:09;-4.90;99.90
11043;DHT22;5574;48.786;10.120;2022-12-18T00:26:38;-4.90;99.90
11043;DHT22;5574;48.786;10.120;2022-12-18T00:29:09;-5.00;99.90
11043;DHT22;5574;48.786;10.120;2022-12-18T00:31:37;-5.00;99.90
11043;DHT22;5574;48.786;10.120;2022-12-18T00:34:04;-5.00;99.90
11043;DHT22;5574;48.786;10.120;2022-12-18T00:36:32;-5.00;99.90
11043;DHT22;5574;48.786;10.120;2022-12-18T00:39:01;-5.00;99.90
11043;DHT22;5574;48.786;10.120;2022-12-18T00:41:30;-5.00;99.90
11043;DHT22;5574;48.786;10.120;2022-12-18T00:44:16;-5.00;99.90
11043;DHT22;5574;48.786;10.120;2022-12-18T00:46:44;-4.90;99.90
11043;DHT22;5574;48.786;10.120;2022-12-18T00:49:11;-5.10;99.90
11043;DHT22;5574;48.786;10.120;2022-12-18T00:51:38;-5.10;99.90
11043;DHT22;5574;48.786;10.120;2022-12-18T00:54:05;-5.10;99.90
11043;DHT22;5574;48.786;10.120;2022-12-18T00:56:35;-5.10;99.90
11043;DHT22;5574;48.786;10.120;2022-12-18T00:59:02;-5.10;99.90
11043;DHT22;5574;48.786;10.120;2022-12-18T01:01:28;-5.10;99.90
11043;DHT22;5574;48.786;10.120;2022-12-18T01:03:55;-5.10;99.90
11043;DHT22;5574;48.786;10.120;2022-12-18T01:06:22;-5.10;99.90
11043;DHT22;5574;48.786;10.120;2022-12-18T01:08:48;-5.30;99.90
11043;DHT22;5574;48.786;10.120;2022-12-18T01:11:18;-5.50;99.90
11043;DHT22;5574;48.786;10.120;2022-12-18T01:13:46;-5.50;99.90
11043;DHT22;5574;48.786;10.120;2022-12-18T01:16:13;-5.50;99.90
11043;DHT22;5574;48.786;10.120;2022-12-18T01:18:40;-5.60;99.90
11043;DHT22;5574;48.786;10.120;2022-12-18T01:21:08;-5.60;99.90
11043;DHT22;5574;48.786;10.120;2022-12-18T01:23:35;-5.60;99.90
11043;DHT22;5574;48.786;10.120;2022-12-18T01:26:05;-5.60;99.90
11043;DHT22;5574;48.786;10.120;2022-12-18T01:28:31;-5.60;99.90
11043;DHT22;5574;48.786;10.120;2022-12-18T01:31:19;-5.80;99.90
11043;DHT22;5574;48.786;10.120;2022-12-18T01:33:46;-5.80;99.90
11043;DHT22;5574;48.786;10.120;2022-12-18T01:36:18;-5.90;99.90
11043;DHT22;5574;48.786;10.120;2022-12-18T01:38:46;-5.80;99.90
11043;DHT22;5574;48.786;10.120;2022-12-18T01:41:18;-5.80;99.90
11043;DHT22;5574;48.786;10.120;2022-12-18T01:43:48;-5.70;99.90
11043;DHT22;5574;48.786;10.120;2022-12-18T01:46:18;-5.70;99.90
11043;DHT22;5574;48.786;10.120;2022-12-18T01:48:47;-5.60;99.90
11043;DHT22;5574;48.786;10.120;2022-12-18T01:51:15;-5.50;99.90
11043;DHT22;5574;48.786;10.120;2022-12-18T01:53:43;-5.40;99.90
11043;DHT22;5574;48.786;10.120;2022-12-18T01:56:13;-5.40;99.90
11043;DHT22;5574;48.786;10.120;2022-12-18T01:58:47;-5.30;99.90
11043;DHT22;5574;48.786;10.120;2022-12-18T02:01:16;-5.30;99.90
11043;DHT22;5574;48.786;10.120;2022-12-18T02:03:44;-5.20;99.90
11043;DHT22;5574;48.786;10.120;2022-12-18T02:06:15;-5.20;99.90
11043;DHT22;5574;48.786;10.120;2022-12-18T02:08:54;-5.30;99.90
11043;DHT22;5574;48.786;10.120;2022-12-18T02:11:32;-5.20;99.90
11043;DHT22;5574;48.786;10.120;2022-12-18T02:14:11;-5.20;99.90
11043;DHT22;5574;48.786;10.120;2022-12-18T02:16:46;-5.20;99.90
11043;DHT22;5574;48.786;10.120;2022-12-18T02:19:26;-5.20;99.90
11043;DHT22;5574;48.786;10.120;2022-12-18T02:22:02;-5.20;99.90
11043;DHT22;5574;48.786;10.120;2022-12-18T02:24:37;-5.20;99.90
11043;DHT22;5574;48.786;10.120;2022-12-18T02:27:09;-5.20;99.90
11043;DHT22;5574;48.786;10.120;2022-12-18T02:29:39;-5.20;99.90
11043;DHT22;5574;48.786;10.120;2022-12-18T02:32:10;-5.20;99.90
11043;DHT22;5574;48.786;10.120;2022-12-18T02:34:40;-5.30;99.90
11043;DHT22;5574;48.786;10.120;2022-12-18T02:37:10;-5.20;99.90
11043;DHT22;5574;48.786;10.120;2022-12-18T02:39:40;-5.20;99.90
11043;DHT22;5574;48.786;10.120;2022-12-18T02:42:09;-5.20;99.90
11043;DHT22;5574;48.786;10.120;2022-12-18T02:44:42;-5.20;99.90
11043;DHT22;5574;48.786;10.120;2022-12-18T02:47:10;-5.30;99.90
11043;DHT22;5574;48.786;10.120;2022-12-18T02:49:43;-5.30;99.90
11043;DHT22;5574;48.786;10.120;2022-12-18T02:52:16;-5.20;99.90
11043;DHT22;5574;48.786;10.120;2022-12-18T02:54:52;-5.30;99.90
11043;DHT22;5574;48.786;10.120;2022-12-18T02:57:27;-5.30;99.90
11043;DHT22;5574;48.786;10.120;2022-12-18T03:00:01;-5.20;99.90
11043;DHT22;5574;48.786;10.120;2022-12-18T03:02:35;-5.20;99.90
11043;DHT22;5574;48.786;10.120;2022-12-18T03:05:09;-5.20;99.90
11043;DHT22;5574;48.786;10.120;2022-12-18T03:07:39;-5.20;99.90
11043;DHT22;5574;48.786;10.120;2022-12-18T03:10:11;-5.20;99.90
11043;DHT22;5574;48.786;10.120;2022-12-18T03:12:43;-5.20;99.90
11043;DHT22;5574;48.786;10.120;2022-12-18T03:15:16;-5.20;99.90
11043;DHT22;5574;48.786;10.120;2022-12-18T03:17:48;-5.30;99.90
11043;DHT22;5574;48.786;10.120;2022-12-18T03:20:20;-5.20;99.90
11043;DHT22;5574;48.786;10.120;2022-12-18T03:23:05;-5.10;99.90
11043;DHT22;5574;48.786;10.120;2022-12-18T03:25:33;-5.20;99.90
11043;DHT22;5574;48.786;10.120;2022-12-18T03:28:03;-5.10;99.90
11043;DHT22;5574;48.786;10.120;2022-12-18T03:30:36;-5.30;99.90
11043;DHT22;5574;48.786;10.120;2022-12-18T03:33:07;-5.20;99.90
11043;DHT22;5574;48.786;10.120;2022-12-18T03:35:38;-5.20;99.90
11043;DHT22;5574;48.786;10.120;2022-12-18T03:38:06;-5.20;99.90
11043;DHT22;5574;48.786;10.120;2022-12-18T03:40:38;-5.20;99.90
11043;DHT22;5574;48.786;10.120;2022-12-18T03:43:10;-5.20;99.90
11043;DHT22;5574;48.786;10.120;2022-12-18T03:45:46;-5.20;99.90
11043;DHT22;5574;48.786;10.120;2022-12-18T03:48:19;-5.20;99.90
11043;DHT22;5574;48.786;10.120;2022-12-18T03:50:56;-5.10;99.90
11043;DHT22;5574;48.786;10.120;2022-12-18T03:53:30;-5.10;99.90
11043;DHT22;5574;48.786;10.120;2022-12-18T03:56:00;-5.10;99.90
11043;DHT22;5574;48.786;10.120;2022-12-18T03:58:29;-5.10;99.90
11043;DHT22;5574;48.786;10.120;2022-12-18T04:01:01;-5.00;99.90
11043;DHT22;5574;48.786;10.120;2022-12-18T04:03:29;-5.00;99.90
11043;DHT22;5574;48.786;10.120;2022-12-18T04:05:59;-5.00;99.90
11043;DHT22;5574;48.786;10.120;2022-12-18T04:08:27;-5.00;99.90
11043;DHT22;5574;48.786;10.120;2022-12-18T04:10:54;-5.00;99.90
11043;DHT22;5574;48.786;10.120;2022-12-18T04:13:27;-4.90;99.90
11043;DHT22;5574;48.786;10.120;2022-12-18T04:15:56;-4.80;99.90
11043;DHT22;5574;48.786;10.120;2022-12-18T04:18:22;-4.80;99.90
11043;DHT22;5574;48.786;10.120;2022-12-18T04:20:49;-4.80;99.90
11043;DHT22;5574;48.786;10.120;2022-12-18T04:23:16;-4.90;99.90
11043;DHT22;5574;48.786;10.120;2022-12-18T04:25:42;-4.80;99.90
11043;DHT22;5574;48.786;10.120;2022-12-18T04:28:09;-4.80;99.90
11043;DHT22;5574;48.786;10.120;2022-12-18T04:30:36;-4.80;99.90
11043;DHT22;5574;48.786;10.120;2022-12-18T04:33:08;-4.90;99.90
11043;DHT22;5574;48.786;10.120;2022-12-18T04:35:35;-4.90;99.90
11043;DHT22;5574;48.786;10.120;2022-12-18T04:38:02;-4.90;99.90
11043;DHT22;5574;48.786;10.120;2022-12-18T04:40:28;-4.90;99.90
11043;DHT22;5574;48.786;10.120;2022-12-18T04:42:55;-4.90;99.90
11043;DHT22;5574;48.786;10.120;2022-12-18T04:45:22;-4.80;99.90
11043;DHT22;5574;48.786;10.120;2022-12-18T04:47:48;-4.80;99.90
11043;DHT22;5574;48.786;10.120;2022-12-18T04:50:17;-4.80;99.90
11043;DHT22;5574;48.786;10.120;2022-12-18T04:52:44;-4.80;99.90
11043;DHT22;5574;48.786;10.120;2022-12-18T04:55:11;-4.80;99.90
11043;DHT22;5574;48.786;10.120;2022-12-18T04:57:38;-4.70;99.90
11043;DHT22;5574;48.786;10.120;2022-12-18T05:00:07;-4.70;99.90
11043;DHT22;5574;48.786;10.120;2022-12-18T05:02:34;-4.80;99.90
11043;DHT22;5574;48.786;10.120;2022-12-18T05:05:01;-4.80;99.90
11043;DHT22;5574;48.786;10.120;2022-12-18T05:07:30;-4.70;99.90
11043;DHT22;5574;48.786;10.120;2022-12-18T05:09:56;-4.70;99.90
11043;DHT22;5574;48.786;10.120;2022-12-18T05:12:23;-4.70;99.90
11043;DHT22;5574;48.786;10.120;2022-12-18T05:14:50;-4.80;99.90
11043;DHT22;5574;48.786;10.120;2022-12-18T05:17:17;-4.70;99.90
11043;DHT22;5574;48.786;10.120;2022-12-18T05:19:43;-4.80;99.90
11043;DHT22;5574;48.786;10.120;2022-12-18T05:22:10;-4.80;99.90
11043;DHT22;5574;48.786;10.120;2022-12-18T05:24:38;-4.70;99.90
11043;DHT22;5574;48.786;10.120;2022-12-18T05:27:05;-4.70;99.90
11043;DHT22;5574;48.786;10.120;2022-12-18T05:29:32;-4.80;99.90
11043;DHT22;5574;48.786;10.120;2022-12-18T05:31:58;-4.80;99.90
11043;DHT22;5574;48.786;10.120;2022-12-18T05:34:25;-4.80;99.90
11043;DHT22;5574;48.786;10.120;2022-12-18T05:36:52;-4.70;99.90
11043;DHT22;5574;48.786;10.120;2022-12-18T05:39:19;-4.70;99.90
11043;DHT22;5574;48.786;10.120;2022-12-18T05:41:47;-4.80;99.90
11043;DHT22;5574;48.786;10.120;2022-12-18T05:44:13;-4.70;99.90
11043;DHT22;5574;48.786;10.120;2022-12-18T05:46:40;-4.70;99.90
11043;DHT22;5574;48.786;10.120;2022-12-18T05:49:07;-4.70;99.90
11043;DHT22;5574;48.786;10.120;2022-12-18T05:51:34;-4.70;99.90
11043;DHT22;5574;48.786;10.120;2022-12-18T05:54:01;-4.70;99.90
11043;DHT22;5574;48.786;10.120;2022-12-18T05:56:27;-4.70;99.90
11043;DHT22;5574;48.786;10.120;2022-12-18T05:58:56;-4.80;99.90
11043;DHT22;5574;48.786;10.120;2022-12-18T06:01:24;-4.70;99.90
11043;DHT22;5574;48.786;10.120;2022-12-18T06:03:51;-4.80;99.90
11043;DHT22;5574;48.786;10.120;2022-12-18T06:06:20;-4.90;99.90
11043;DHT22;5574;48.786;10.120;2022-12-18T06:08:47;-4.90;99.90
11043;DHT22;5574;48.786;10.120;2022-12-18T06:11:17;-4.90;99.90
11043;DHT22;5574;48.786;10.120;2022-12-18T06:13:44;-4.90;99.90
11043;DHT22;5574;48.786;10.120;2022-12-18T06:16:13;-4.90;99.90
11043;DHT22;5574;48.786;10.120;2022-12-18T06:18:39;-4.90;99.90
11043;DHT22;5574;48.786;10.120;2022-12-18T06:21:06;-4.90;99.90
11043;DHT22;5574;48.786;10.120;2022-12-18T06:23:33;-4.90;99.90
11043;DHT22;5574;48.786;10.120;2022-12-18T06:26:04;-4.90;99.90
11043;DHT22;5574;48.786;10.120;2022-12-18T06:28:30;-4.90;99.90
11043;DHT22;5574;48.786;10.120;2022-12-18T06:30:57;-4.80;99.90
11043;DHT22;5574;48.786;10.120;2022-12-18T06:33:27;-4.80;99.90
11043;DHT22;5574;48.786;10.120;2022-12-18T06:35:54;-4.80;99.90
11043;DHT22;5574;48.786;10.120;2022-12-18T06:38:21;-4.80;99.90
11043;DHT22;5574;48.786;10.120;2022-12-18T06:40:48;-4.80;99.90
11043;DHT22;5574;48.786;10.120;2022-12-18T06:43:15;-4.80;99.90
11043;DHT22;5574;48.786;10.120;2022-12-18T06:45:41;-4.80;99.90
11043;DHT22;5574;48.786;10.120;2022-12-18T06:48:08;-4.80;99.90
11043;DHT22;5574;48.786;10.120;2022-12-18T06:50:36;-4.70;99.90
11043;DHT22;5574;48.786;10.120;2022-12-18T06:53:03;-4.70;99.90
11043;DHT22;5574;48.786;10.120;2022-12-18T06:55:30;-4.70;99.90
11043;DHT22;5574;48.786;10.120;2022-12-18T06:57:56;-4.70;99.90
11043;DHT22;5574;48.786;10.120;2022-12-18T07:00:23;-4.60;99.90
11043;DHT22;5574;48.786;10.120;2022-12-18T07:02:50;-4.70;99.90
11043;DHT22;5574;48.786;10.120;2022-12-18T07:05:16;-4.70;99.90
11043;DHT22;5574;48.786;10.120;2022-12-18T07:07:44;-4.70;99.90
11043;DHT22;5574;48.786;10.120;2022-12-18T07:10:11;-4.70;99.90
11043;DHT22;5574;48.786;10.120;2022-12-18T07:12:38;-4.80;99.90
11043;DHT22;5574;48.786;10.120;2022-12-18T07:15:06;-4.80;99.90
11043;DHT22;5574;48.786;10.120;2022-12-18T07:17:33;-4.80;99.90
11043;DHT22;5574;48.786;10.120;2022-12-18T07:19:59;-4.80;99.90
11043;DHT22;5574;48.786;10.120;2022-12-18T07:22:26;-4.80;99.90
11043;DHT22;5574;48.786;10.120;2022-12-18T07:24:54;-4.80;99.90
11043;DHT22;5574;48.786;10.120;2022-12-18T07:27:22;-4.80;99.90
11043;DHT22;5574;48.786;10.120;2022-12-18T07:29:48;-4.80;99.90
11043;DHT22;5574;48.786;10.120;2022-12-18T07:32:15;-4.80;99.90
11043;DHT22;5574;48.786;10.120;2022-12-18T07:34:42;-4.70;99.90
11043;DHT22;5574;48.786;10.120;2022-12-18T07:37:09;-4.70;99.90
11043;DHT22;5574;48.786;10.120;2022-12-18T07:39:35;-4.70;99.90
11043;DHT22;5574;48.786;10.120;2022-12-18T07:42:04;-4.60;99.90
11043;DHT22;5574;48.786;10.120;2022-12-18T07:44:48;-4.60;99.90
11043;DHT22;5574;48.786;10.120;2022-12-18T07:47:14;-4.50;99.90
11043;DHT22;5574;48.786;10.120;2022-12-18T07:49:41;-4.40;99.90
11043;DHT22;5574;48.786;10.120;2022-12-18T07:52:08;-4.50;99.90
11043;DHT22;5574;48.786;10.120;2022-12-18T07:54:35;-4.50;99.90
11043;DHT22;5574;48.786;10.120;2022-12-18T07:57:01;-4.50;99.90
11043;DHT22;5574;48.786;10.120;2022-12-18T07:59:29;-4.40;99.90
11043;DHT22;5574;48.786;10.120;2022-12-18T08:01:56;-4.40;99.90
11043;DHT22;5574;48.786;10.120;2022-12-18T08:04:24;-4.50;99.90
11043;DHT22;5574;48.786;10.120;2022-12-18T08:06:51;-4.50;99.90
11043;DHT22;5574;48.786;10.120;2022-12-18T08:09:17;-4.40;99.90
11043;DHT22;5574;48.786;10.120;2022-12-18T08:11:44;-4.40;99.90
11043;DHT22;5574;48.786;10.120;2022-12-18T08:14:11;-4.40;99.90
11043;DHT22;5574;48.786;10.120;2022-12-18T08:16:39;-4.40;99.90
11043;DHT22;5574;48.786;10.120;2022-12-18T08:19:06;-4.40;99.90
11043;DHT22;5574;48.786;10.120;2022-12-18T08:21:32;-4.40;99.90
11043;DHT22;5574;48.786;10.120;2022-12-18T08:24:00;-4.50;99.90
11043;DHT22;5574;48.786;10.120;2022-12-18T08:26:28;-4.40;99.90
11043;DHT22;5574;48.786;10.120;2022-12-18T08:28:56;-4.40;99.90
11043;DHT22;5574;48.786;10.120;2022-12-18T08:31:24;-4.40;99.90
11043;DHT22;5574;48.786;10.120;2022-12-18T08:33:53;-4.40;99.90
11043;DHT22;5574;48.786;10.120;2022-12-18T08:36:20;-4.40;99.90
11043;DHT22;5574;48.786;10.120;2022-12-18T08:38:47;-4.40;99.90
11043;DHT22;5574;48.786;10.120;2022-12-18T08:41:15;-4.40;99.90
11043;DHT22;5574;48.786;10.120;2022-12-18T08:43:42;-4.40;99.90
11043;DHT22;5574;48.786;10.120;2022-12-18T08:46:32;-4.40;99.90
11043;DHT22;5574;48.786;10.120;2022-12-18T08:49:01;-4.30;99.90
11043;DHT22;5574;48.786;10.120;2022-12-18T08:51:28;-4.10;99.90
11043;DHT22;5574;48.786;10.120;2022-12-18T08:53:55;-3.90;99.90
11043;DHT22;5574;48.786;10.120;2022-12-18T08:56:21;-3.90;99.90
11043;DHT22;5574;48.786;10.120;2022-12-18T08:58:51;-3.70;99.90
11043;DHT22;5574;48.786;10.120;2022-12-18T09:01:18;-3.30;99.90
11043;DHT22;5574;48.786;10.120;2022-12-18T09:03:45;-3.40;99.90
11043;DHT22;5574;48.786;10.120;2022-12-18T09:06:15;-3.30;99.90
11043;DHT22;5574;48.786;10.120;2022-12-18T09:08:42;-3.00;99.90
11043;DHT22;5574;48.786;10.120;2022-12-18T09:11:14;-2.60;99.90
11043;DHT22;5574;48.786;10.120;2022-12-18T09:13:41;-2.70;99.90
11043;DHT22;5574;48.786;10.120;2022-12-18T09:16:07;-2.60;99.90
11043;DHT22;5574;48.786;10.120;2022-12-18T09:18:35;-2.90;99.90
11043;DHT22;5574;48.786;10.120;2022-12-18T09:21:08;-2.70;99.90
11043;DHT22;5574;48.786;10.120;2022-12-18T09:23:36;-2.70;99.90
11043;DHT22;5574;48.786;10.120;2022-12-18T09:26:03;-2.80;99.90
11043;DHT22;5574;48.786;10.120;2022-12-18T09:28:30;-2.90;99.90
11043;DHT22;5574;48.786;10.120;2022-12-18T09:30:57;-2.90;99.90
11043;DHT22;5574;48.786;10.120;2022-12-18T09:33:24;-2.90;99.90
11043;DHT22;5574;48.786;10.120;2022-12-18T09:35:50;-2.80;99.90
11043;DHT22;5574;48.786;10.120;2022-12-18T09:38:18;-2.80;99.90
11043;DHT22;5574;48.786;10.120;2022-12-18T09:40:48;-2.60;99.90
11043;DHT22;5574;48.786;10.120;2022-12-18T09:43:18;-2.80;99.90
11043;DHT22;5574;48.786;10.120;2022-12-18T09:45:48;-2.70;99.90
11043;DHT22;5574;48.786;10.120;2022-12-18T09:48:19;-2.80;99.90
11043;DHT22;5574;48.786;10.120;2022-12-18T09:50:48;-2.60;99.90
11043;DHT22;5574;48.786;10.120;2022-12-18T09:53:20;-2.30;99.90
11043;DHT22;5574;48.786;10.120;2022-12-18T09:55:51;-2.70;99.90
11043;DHT22;5574;48.786;10.120;2022-12-18T09:58:24;-2.60;99.90
11043;DHT22;5574;48.786;10.120;2022-12-18T10:00:52;-3.00;99.90
11043;DHT22;5574;48.786;10.120;2022-12-18T10:03:19;-2.70;99.90
11043;DHT22;5574;48.786;10.120;2022-12-18T10:05:53;-2.60;99.90
11043;DHT22;5574;48.786;10.120;2022-12-18T10:08:29;-2.40;99.90
11043;DHT22;5574;48.786;10.120;2022-12-18T10:11:03;-2.70;99.90
11043;DHT22;5574;48.786;10.120;2022-12-18T10:13:40;-2.60;99.90
11043;DHT22;5574;48.786;10.120;2022-12-18T10:16:14;-2.70;99.90
11043;DHT22;5574;48.786;10.120;2022-12-18T10:18:58;-2.20;99.90
11043;DHT22;5574;48.786;10.120;2022-12-18T10:21:32;-2.40;99.90
11043;DHT22;5574;48.786;10.120;2022-12-18T10:24:08;-2.40;99.90
11043;DHT22;5574;48.786;10.120;2022-12-18T10:26:41;-2.50;99.90
11043;DHT22;5574;48.786;10.120;2022-12-18T10:29:10;-2.50;99.90
11043;DHT22;5574;48.786;10.120;2022-12-18T10:31:37;-2.50;99.90
11043;DHT22;5574;48.786;10.120;2022-12-18T10:34:04;-2.70;99.90
11043;DHT22;5574;48.786;10.120;2022-12-18T10:36:30;-2.50;99.90
11043;DHT22;5574;48.786;10.120;2022-12-18T10:39:14;-2.60;99.90
11043;DHT22;5574;48.786;10.120;2022-12-18T10:41:42;-2.20;99.90
11043;DHT22;5574;48.786;10.120;2022-12-18T10:44:18;-2.20;99.90
11043;DHT22;5574;48.786;10.120;2022-12-18T10:46:46;-2.60;99.90
11043;DHT22;5574;48.786;10.120;2022-12-18T10:49:25;-2.60;99.90
11043;DHT22;5574;48.786;10.120;2022-12-18T10:52:07;-2.90;99.90
11043;DHT22;5574;48.786;10.120;2022-12-18T10:54:38;-2.90;99.90
11043;DHT22;5574;48.786;10.120;2022-12-18T10:57:17;-2.50;99.90
11043;DHT22;5574;48.786;10.120;2022-12-18T10:59:51;-2.40;99.90
11043;DHT22;5574;48.786;10.120;2022-12-18T11:02:26;-2.30;99.90
11043;DHT22;5574;48.786;10.120;2022-12-18T11:04:53;-2.20;99.90
11043;DHT22;5574;48.786;10.120;2022-12-18T11:07:19;-2.10;99.90
11043;DHT22;5574;48.786;10.120;2022-12-18T11:09:59;-2.40;99.90
11043;DHT22;5574;48.786;10.120;2022-12-18T11:12:29;-2.30;99.90
11043;DHT22;5574;48.786;10.120;2022-12-18T11:14:56;-2.60;99.90
11043;DHT22;5574;48.786;10.120;2022-12-18T11:17:28;-2.60;99.90
11043;DHT22;5574;48.786;10.120;2022-12-18T11:19:57;-2.30;99.90
11043;DHT22;5574;48.786;10.120;2022-12-18T11:22:26;-2.30;99.90
11043;DHT22;5574;48.786;10.120;2022-12-18T11:24:56;-2.20;99.90
11043;DHT22;5574;48.786;10.120;2022-12-18T11:27:23;-2.20;99.90
11043;DHT22;5574;48.786;10.120;2022-12-18T11:29:52;-2.30;99.90
11043;DHT22;5574;48.786;10.120;2022-12-18T11:32:32;-2.20;99.90
11043;DHT22;5574;48.786;10.120;2022-12-18T11:35:07;-2.20;99.90
11043;DHT22;5574;48.786;10.120;2022-12-18T11:37:39;-2.40;99.90
11043;DHT22;5574;48.786;10.120;2022-12-18T11:40:13;-2.40;99.90
11043;DHT22;5574;48.786;10.120;2022-12-18T11:42:45;-2.30;99.90
11043;DHT22;5574;48.786;10.120;2022-12-18T11:45:30;-2.40;99.90
11043;DHT22;5574;48.786;10.120;2022-12-18T11:48:02;-2.60;99.90
11043;DHT22;5574;48.786;10.120;2022-12-18T11:50:43;-2.80;99.90
11043;DHT22;5574;48.786;10.120;2022-12-18T11:53:11;-2.50;99.90
11043;DHT22;5574;48.786;10.120;2022-12-18T11:55:43;-2.40;99.90
11043;DHT22;5574;48.786;10.120;2022-12-18T11:58:20;-2.30;99.90
11043;DHT22;5574;48.786;10.120;2022-12-18T12:00:56;-2.10;99.90
11043;DHT22;5574;48.786;10.120;2022-12-18T12:04:00;-2.10;99.90
11043;DHT22;5574;48.786;10.120;2022-12-18T12:06:33;-2.30;99.90
11043;DHT22;5574;48.786;10.120;2022-12-18T12:09:11;-2.40;99.90
11043;DHT22;5574;48.786;10.120;2022-12-18T12:11:50;-2.50;99.90
11043;DHT22;5574;48.786;10.120;2022-12-18T12:14:38;-2.50;99.90
11043;DHT22;5574;48.786;10.120;2022-12-18T12:17:16;-2.60;99.90
11043;DHT22;5574;48.786;10.120;2022-12-18T12:19:53;-2.60;99.90
11043;DHT22;5574;48.786;10.120;2022-12-18T12:22:27;-2.70;99.90
11043;DHT22;5574;48.786;10.120;2022-12-18T12:25:07;-2.80;99.90
11043;DHT22;5574;48.786;10.120;2022-12-18T12:27:44;-2.90;99.90
11043;DHT22;5574;48.786;10.120;2022-12-18T12:30:19;-2.90;99.90
11043;DHT22;5574;48.786;10.120;2022-12-18T12:33:00;-2.90;99.90
11043;DHT22;5574;48.786;10.120;2022-12-18T12:35:42;-2.80;99.90
11043;DHT22;5574;48.786;10.120;2022-12-18T12:38:13;-3.00;99.90
11043;DHT22;5574;48.786;10.120;2022-12-18T12:40:45;-2.90;99.90
11043;DHT22;5574;48.786;10.120;2022-12-18T12:43:26;-2.90;99.90
11043;DHT22;5574;48.786;10.120;2022-12-18T12:45:55;-3.00;99.90
11043;DHT22;5574;48.786;10.120;2022-12-18T12:48:38;-3.00;99.90
11043;DHT22;5574;48.786;10.120;2022-12-18T12:51:11;-2.90;99.90
11043;DHT22;5574;48.786;10.120;2022-12-18T12:53:39;-2.80;99.90
11043;DHT22;5574;48.786;10.120;2022-12-18T12:56:09;-2.90;99.90
11043;DHT22;5574;48.786;10.120;2022-12-18T12:58:44;-2.80;99.90
11043;DHT22;5574;48.786;10.120;2022-12-18T13:01:21;-2.80;99.90
11043;DHT22;5574;48.786;10.120;2022-12-18T13:03:58;-2.80;99.90
11043;DHT22;5574;48.786;10.120;2022-12-18T13:06:36;-2.70;99.90
11043;DHT22;5574;48.786;10.120;2022-12-18T13:09:04;-2.70;99.90
11043;DHT22;5574;48.786;10.120;2022-12-18T13:11:35;-2.60;99.90
11043;DHT22;5574;48.786;10.120;2022-12-18T13:14:23;-2.60;99.90
11043;DHT22;5574;48.786;10.120;2022-12-18T13:16:50;-2.50;99.90
11043;DHT22;5574;48.786;10.120;2022-12-18T13:19:24;-2.40;99.90
11043;DHT22;5574;48.786;10.120;2022-12-18T13:21:53;-2.30;99.90
11043;DHT22;5574;48.786;10.120;2022-12-18T13:24:24;-2.20;99.90
11043;DHT22;5574;48.786;10.120;2022-12-18T13:26:52;-2.20;99.90
11043;DHT22;5574;48.786;10.120;2022-12-18T13:29:40;-2.20;99.90
11043;DHT22;5574;48.786;10.120;2022-12-18T13:32:20;-2.20;99.90
11043;DHT22;5574;48.786;10.120;2022-12-18T13:34:48;-2.20;99.90
11043;DHT22;5574;48.786;10.120;2022-12-18T13:37:41;-2.30;99.90
11043;DHT22;5574;48.786;10.120;2022-12-18T13:43:34;-2.20;99.90
11043;DHT22;5574;48.786;10.120;2022-12-18T13:46:05;-2.20;99.90
11043;DHT22;5574;48.786;10.120;2022-12-18T13:48:36;-2.20;99.90
11043;DHT22;5574;48.786;10.120;2022-12-18T13:51:07;-2.30;99.90
11043;DHT22;5574;48.786;10.120;2022-12-18T13:53:38;-2.20;99.90
11043;DHT22;5574;48.786;10.120;2022-12-18T13:56:06;-2.20;99.90
11043;DHT22;5574;48.786;10.120;2022-12-18T13:58:32;-2.20;99.90
11043;DHT22;5574;48.786;10.120;2022-12-18T14:00:59;-2.10;99.90
11043;DHT22;5574;48.786;10.120;2022-12-18T14:03:30;-2.00;99.90
11043;DHT22;5574;48.786;10.120;2022-12-18T14:06:01;-1.90;99.90
11043;DHT22;5574;48.786;10.120;2022-12-18T14:08:34;-1.80;99.90
11043;DHT22;5574;48.786;10.120;2022-12-18T14:11:03;-1.90;99.90
11043;DHT22;5574;48.786;10.120;2022-12-18T14:13:33;-1.80;99.90
11043;DHT22;5574;48.786;10.120;2022-12-18T14:16:03;-1.90;99.90
11043;DHT22;5574;48.786;10.120;2022-12-18T14:18:38;-1.90;99.90
11043;DHT22;5574;48.786;10.120;2022-12-18T14:21:05;-2.00;99.90
11043;DHT22;5574;48.786;10.120;2022-12-18T14:23:36;-1.90;99.90
11043;DHT22;5574;48.786;10.120;2022-12-18T14:26:19;-1.80;99.90
11043;DHT22;5574;48.786;10.120;2022-12-18T14:28:46;-1.90;99.90
11043;DHT22;5574;48.786;10.120;2022-12-18T14:31:17;-1.90;99.90
11043;DHT22;5574;48.786;10.120;2022-12-18T14:33:44;-1.90;99.90
11043;DHT22;5574;48.786;10.120;2022-12-18T14:36:16;-1.90;99.90
11043;DHT22;5574;48.786;10.120;2022-12-18T14:38:48;-1.80;99.90
11043;DHT22;5574;48.786;10.120;2022-12-18T14:41:16;-1.80;99.90
11043;DHT22;5574;48.786;10.120;2022-12-18T14:43:45;-1.80;99.90
11043;DHT22;5574;48.786;10.120;2022-12-18T14:46:28;-1.80;99.90
11043;DHT22;5574;48.786;10.120;2022-12-18T14:48:55;-1.70;99.90
11043;DHT22;5574;48.786;10.120;2022-12-18T14:51:27;-1.70;99.90
11043;DHT22;5574;48.786;10.120;2022-12-18T14:53:57;-1.80;99.90
11043;DHT22;5574;48.786;10.120;2022-12-18T14:56:27;-1.70;99.90
11043;DHT22;5574;48.786;10.120;2022-12-18T14:58:55;-1.60;99.90
11043;DHT22;5574;48.786;10.120;2022-12-18T15:01:25;-1.70;99.90
11043;DHT22;5574;48.786;10.120;2022-12-18T15:03:53;-1.80;99.90
11043;DHT22;5574;48.786;10.120;2022-12-18T15:06:29;-1.90;99.90
11043;DHT22;5574;48.786;10.120;2022-12-18T15:08:59;-2.00;99.90
11043;DHT22;5574;48.786;10.120;2022-12-18T15:11:30;-2.00;99.90
11043;DHT22;5574;48.786;10.120;2022-12-18T15:13:58;-2.00;99.90
11043;DHT22;5574;48.786;10.120;2022-12-18T15:16:26;-2.00;99.90
11043;DHT22;5574;48.786;10.120;2022-12-18T15:18:53;-2.10;99.90
11043;DHT22;5574;48.786;10.120;2022-12-18T15:21:20;-2.00;99.90
11043;DHT22;5574;48.786;10.120;2022-12-18T15:23:49;-2.00;99.90
11043;DHT22;5574;48.786;10.120;2022-12-18T15:26:19;-2.00;99.90
11043;DHT22;5574;48.786;10.120;2022-12-18T15:28:47;-1.90;99.90
11043;DHT22;5574;48.786;10.120;2022-12-18T15:31:32;-1.70;99.90
11043;DHT22;5574;48.786;10.120;2022-12-18T15:34:09;-1.80;99.90
11043;DHT22;5574;48.786;10.120;2022-12-18T15:36:37;-1.90;99.90
11043;DHT22;5574;48.786;10.120;2022-12-18T15:39:04;-2.00;99.90
11043;DHT22;5574;48.786;10.120;2022-12-18T15:41:33;-2.10;99.90
11043;DHT22;5574;48.786;10.120;2022-12-18T15:44:00;-2.20;99.90
11043;DHT22;5574;48.786;10.120;2022-12-18T15:46:26;-2.20;99.90
11043;DHT22;5574;48.786;10.120;2022-12-18T15:48:54;-2.30;99.90
11043;DHT22;5574;48.786;10.120;2022-12-18T15:51:23;-2.40;99.90
11043;DHT22;5574;48.786;10.120;2022-12-18T15:53:53;-2.40;99.90